Time;durP1;ratioP1;P1;durP2;ratioP2;P2;SDS_P1;SDS_P2;PMS_P1;PMS_P2;Temp;Humidity;BMP_temperature;BMP_pressure;BME280_temperature;BME280_humidity;BME280_pressure;Samples;Min_cycle;Max_cycle;Signal;HPM_P1;HPM_P2
2022/02/17 00:00:24;;;;;;;;;;;;;;;;;;2096544;28;19924;-43
2022/02/17 00:01:25;;;;;;;;;;;;;;;;;;2098388;28;20394;-43
2022/02/17 00:02:26;;;;;;;;;;;;;;;;;;2098503;28;20066;-48
2022/02/17 00:03:28;;;;;;;;;;;;;;;;;;2096944;28;19994;-48
2022/02/17 00:04:29;;;;;;;;;;;;;;;;;;2098996;28;20011;-49
2022/02/17 00:05:30;;;;;;;;;;;;;;;;;;2097794;28;19962;-49
2022/02/17 00:06:30;;;;;;;;;;;;;;;;;;2097320;28;20039;-51
2022/02/17 00:07:31;;;;;;;;;;;;;;;;;;2098441;28;19931;-50
2022/02/17 00:08:33;;;;;;;;;;;;;;;;;;2097796;28;19966;-43
2022/02/17 00:09:34;;;;;;;;;;;;;;;;;;2098154;28;19973;-44
2022/02/17 00:10:35;;;;;;;;;;;;;;;;;;2099154;28;20340;-48
2022/02/17 00:11:39;;;;;;;;;;;;;;;;;;2095028;28;19928;-48
2022/02/17 00:12:40;;;;;;;;;;;;;;;;;;2098924;28;19925;-51
2022/02/17 00:13:41;;;;;;;;;;;;;;;;;;2097661;28;20011;-48
2022/02/17 00:14:42;;;;;;;;;;;;;;;;;;2096526;28;19959;-43
2022/02/17 00:15:43;;;;;;;;;;;;;;;;;;2098543;28;20288;-44
2022/02/17 00:16:44;;;;;;;;;;;;;;;;;;2098405;28;20007;-50
2022/02/17 00:17:45;;;;;;;;;;;;;;;;;;2098629;28;19974;-51
2022/02/17 00:18:48;;;;;;;;;;;;;;;;;;2099030;28;19928;-49
2022/02/17 00:19:49;;;;;;;;;;;;;;;;;;2096860;28;20365;-48
2022/02/17 00:20:50;;;;;;;;;;;;;;;;;;2098183;28;19925;-48
2022/02/17 00:21:51;;;;;;;;;;;;;;;;;;2099169;28;19924;-43
2022/02/17 00:22:52;;;;;;;;;;;;;;;;;;2096530;28;20000;-52
2022/02/17 00:23:52;;;;;;;;;;;;;;;;;;2098719;28;19924;-49
2022/02/17 00:24:54;;;;;;;;;;;;;;;;;;2098767;28;19947;-43
2022/02/17 00:25:54;;;;;;;;;;;;;;;;;;2095614;28;19924;-48
2022/02/17 00:26:56;;;;;;;;;;;;;;;;;;2098660;28;20295;-49
2022/02/17 00:27:57;;;;;;;;;;;;;;;;;;2098017;28;20011;-49
2022/02/17 00:28:59;;;;;;;;;;;;;;;;;;2096342;28;19971;-49
2022/02/17 00:30:00;;;;;;;;;;;;;;;;;;2098625;28;19963;-49
2022/02/17 00:31:01;;;;;;;;;;;;;;;;;;2097105;28;19960;-50
2022/02/17 00:32:02;;;;;;;;;;;;;;;;;;2098042;28;20011;-48
2022/02/17 00:33:04;;;;;;;;;;;;;;;;;;2098869;28;19964;-52
2022/02/17 00:34:04;;;;;;;;;;;;;;;;;;2096292;28;19925;-48
2022/02/17 00:35:05;;;;;;;;;;;;;;;;;;2098997;28;19924;-52
2022/02/17 00:36:06;;;;;;;;;;;;;;;;;;2098762;28;20390;-43
2022/02/17 00:37:07;;;;;;;;;;;;;;;;;;2096212;28;19928;-43
2022/02/17 00:38:08;;;;;;;;;;;;;;;;;;2098507;28;19924;-43
2022/02/17 00:39:09;;;;;;;;;;;;;;;;;;2098403;28;19951;-48
2022/02/17 00:40:09;;;;;;;;;;;;;;;;;;2097022;28;20014;-48
2022/02/17 00:41:10;;;;;;;;;;;;;;;;;;2098578;28;19952;-43
2022/02/17 00:42:11;;;;;;;;;;;;;;;;;;2096515;28;20365;-44
2022/02/17 00:43:12;;;;;;;;;;;;;;;;;;2096391;28;19924;-50
2022/02/17 00:44:13;;;;;;;;;;;;;;;;;;2098532;28;19925;-50
2022/02/17 00:45:14;;;;;;;;;;;;;;;;;;2096468;28;20015;-48
2022/02/17 00:46:15;;;;;;;;;;;;;;;;;;2098236;28;19932;-49
2022/02/17 00:47:16;;;;;;;;;;;;;;;;;;2098719;28;20388;-43
2022/02/17 00:48:17;;;;;;;;;;;;;;;;;;2096753;28;19974;-50
2022/02/17 00:49:18;;;;;;;;;;;;;;;;;;2090161;28;19943;-48
2022/02/17 00:50:19;;;;;;;;;;;;;;;;;;2089949;28;19971;-50
2022/02/17 00:51:20;;;;;;;;;;;;;;;;;;2094108;28;19970;-51
2022/02/17 00:52:21;;;;;;;;;;;;;;;;;;2090020;28;20294;-50
2022/02/17 00:53:22;;;;;;;;;;;;;;;;;;2089600;28;19924;-49
2022/02/17 00:54:23;;;;;;;;;;;;;;;;;;2095931;28;19976;-48
2022/02/17 00:55:23;;;;;;;;;;;;;;;;;;2098373;28;19924;-50
2022/02/17 00:56:24;;;;;;;;;;;;;;;;;;2097692;28;20010;-49
2022/02/17 00:57:25;;;;;;;;;;;;;;;;;;2097215;28;19971;-49
2022/02/17 00:58:26;;;;;;;;;;;;;;;;;;2098367;28;19925;-48
2022/02/17 00:59:28;;;;;;;;;;;;;;;;;;2096462;28;19999;-49
2022/02/17 01:00:29;;;;;;;;;;;;;;;;;;2098525;28;20019;-45
2022/02/17 01:01:30;;;;;;;;;;;;;;;;;;2098041;28;19994;-43
2022/02/17 01:02:31;;;;;;;;;;;;;;;;;;2095988;28;20017;-43
2022/02/17 01:03:32;;;;;;;;;;;;;;;;;;2098303;28;20293;-49
2022/02/17 01:04:33;;;;;;;;;;;;;;;;;;2098602;28;20146;-43
2022/02/17 01:05:34;;;;;;;;;;;;;;;;;;2094622;28;19967;-43
2022/02/17 01:06:39;;;;;;;;;;;;;;;;;;2097662;28;20011;-43
2022/02/17 01:07:39;;;;;;;;;;;;;;;;;;2096932;28;20020;-44
2022/02/17 01:08:40;;;;;;;;;;;;;;;;;;2096863;28;20019;-43
2022/02/17 01:09:41;;;;;;;;;;;;;;;;;;2098233;28;19925;-43
2022/02/17 01:10:42;;;;;;;;;;;;;;;;;;2097176;28;19925;-44
2022/02/17 01:11:43;;;;;;;;;;;;;;;;;;2097117;28;19925;-43
2022/02/17 01:12:44;;;;;;;;;;;;;;;;;;2098517;28;20058;-43
2022/02/17 01:13:45;;;;;;;;;;;;;;;;;;2093650;28;20019;-44
2022/02/17 01:14:46;;;;;;;;;;;;;;;;;;2098185;28;20266;-43
2022/02/17 01:15:47;;;;;;;;;;;;;;;;;;2098222;28;19974;-43
2022/02/17 01:16:48;;;;;;;;;;;;;;;;;;2094953;28;20488;-48
2022/02/17 01:17:49;;;;;;;;;;;;;;;;;;2098578;28;19970;-48
2022/02/17 01:18:50;;;;;;;;;;;;;;;;;;2097614;28;20297;-50
2022/02/17 01:19:50;;;;;;;;;;;;;;;;;;2095231;28;19932;-49
2022/02/17 01:20:52;;;;;;;;;;;;;;;;;;2098221;28;20065;-49
2022/02/17 01:21:52;;;;;;;;;;;;;;;;;;2096210;28;19967;-48
2022/02/17 01:22:53;;;;;;;;;;;;;;;;;;2095712;28;19924;-48
2022/02/17 01:23:54;;;;;;;;;;;;;;;;;;2098069;28;19925;-50
2022/02/17 01:24:55;;;;;;;;;;;;;;;;;;2096431;28;19925;-48
2022/02/17 01:25:56;;;;;;;;;;;;;;;;;;2097932;28;20303;-48
2022/02/17 01:26:57;;;;;;;;;;;;;;;;;;2098012;28;20038;-49
2022/02/17 01:27:57;;;;;;;;;;;;;;;;;;2094887;28;19932;-49
2022/02/17 01:28:58;;;;;;;;;;;;;;;;;;2098014;28;20384;-49
2022/02/17 01:29:59;;;;;;;;;;;;;;;;;;2098247;28;19951;-48
2022/02/17 01:31:00;;;;;;;;;;;;;;;;;;2095792;28;20407;-49
2022/02/17 01:32:01;;;;;;;;;;;;;;;;;;2098042;28;20343;-48
2022/02/17 01:33:02;;;;;;;;;;;;;;;;;;2097820;28;20023;-43
2022/02/17 01:34:03;;;;;;;;;;;;;;;;;;2096225;28;20385;-43
2022/02/17 01:35:04;;;;;;;;;;;;;;;;;;2097978;28;19924;-43
2022/02/17 01:36:06;;;;;;;;;;;;;;;;;;2095868;28;19925;-43
2022/02/17 01:37:09;;;;;;;;;;;;;;;;;;2096969;28;19924;-43
2022/02/17 01:38:09;;;;;;;;;;;;;;;;;;2098022;28;20275;-44
2022/02/17 01:39:10;;;;;;;;;;;;;;;;;;2096136;28;19928;-44
2022/02/17 01:40:11;;;;;;;;;;;;;;;;;;2097639;28;19947;-45
2022/02/17 01:41:12;;;;;;;;;;;;;;;;;;2097913;28;19931;-44
2022/02/17 01:42:13;;;;;;;;;;;;;;;;;;2095768;28;19925;-44
2022/02/17 01:43:17;;;;;;;;;;;;;;;;;;2098142;28;19935;-44
2022/02/17 01:44:18;;;;;;;;;;;;;;;;;;2097432;28;19925;-44
2022/02/17 01:45:19;;;;;;;;;;;;;;;;;;2095402;28;19925;-50
2022/02/17 01:46:20;;;;;;;;;;;;;;;;;;2097993;28;19931;-48
2022/02/17 01:47:21;;;;;;;;;;;;;;;;;;2097260;28;19952;-49
2022/02/17 01:48:22;;;;;;;;;;;;;;;;;;2095433;28;20019;-50
2022/02/17 01:49:23;;;;;;;;;;;;;;;;;;2098193;28;20386;-49
2022/02/17 01:50:24;;;;;;;;;;;;;;;;;;2096123;28;19931;-49
2022/02/17 01:51:24;;;;;;;;;;;;;;;;;;2096625;28;19964;-49
2022/02/17 01:52:25;;;;;;;;;;;;;;;;;;2098028;28;19967;-49
2022/02/17 01:53:26;;;;;;;;;;;;;;;;;;2096136;28;19940;-45
2022/02/17 01:54:27;;;;;;;;;;;;;;;;;;2098018;28;20306;-44
2022/02/17 01:55:28;;;;;;;;;;;;;;;;;;2098022;28;19928;-44
2022/02/17 01:56:29;;;;;;;;;;;;;;;;;;2094478;28;19972;-44
2022/02/17 01:57:29;;;;;;;;;;;;;;;;;;2097849;28;19939;-43
2022/02/17 01:58:30;;;;;;;;;;;;;;;;;;2097724;28;19924;-44
2022/02/17 01:59:31;;;;;;;;;;;;;;;;;;2096099;28;19961;-44
2022/02/17 02:00:32;;;;;;;;;;;;;;;;;;2098138;28;20378;-44
2022/02/17 02:01:33;;;;;;;;;;;;;;;;;;2095499;28;19925;-45
2022/02/17 02:02:34;;;;;;;;;;;;;;;;;;2095314;28;19978;-44
2022/02/17 02:03:34;;;;;;;;;;;;;;;;;;2098246;28;20374;-44
2022/02/17 02:04:35;;;;;;;;;;;;;;;;;;2096127;28;20156;-44
2022/02/17 02:05:36;;;;;;;;;;;;;;;;;;2097650;28;19924;-44
2022/02/17 02:06:37;;;;;;;;;;;;;;;;;;2098036;28;19928;-44
2022/02/17 02:07:38;;;;;;;;;;;;;;;;;;2096226;28;19924;-44
2022/02/17 02:08:39;;;;;;;;;;;;;;;;;;2090049;28;19968;-49
2022/02/17 02:09:40;;;;;;;;;;;;;;;;;;2089938;28;19982;-44
2022/02/17 02:10:41;;;;;;;;;;;;;;;;;;2092208;28;20330;-43
2022/02/17 02:11:41;;;;;;;;;;;;;;;;;;2097868;28;20356;-44
2022/02/17 02:12:42;;;;;;;;;;;;;;;;;;2097526;28;19943;-45
2022/02/17 02:13:43;;;;;;;;;;;;;;;;;;2095862;28;20393;-44
2022/02/17 02:14:44;;;;;;;;;;;;;;;;;;2097985;28;19971;-45
2022/02/17 02:15:45;;;;;;;;;;;;;;;;;;2097137;28;19960;-49
2022/02/17 02:16:46;;;;;;;;;;;;;;;;;;2095455;28;19975;-49
2022/02/17 02:17:47;;;;;;;;;;;;;;;;;;2097803;28;20014;-48
2022/02/17 02:18:48;;;;;;;;;;;;;;;;;;2096198;28;19932;-43
2022/02/17 02:19:48;;;;;;;;;;;;;;;;;;2097182;28;19924;-44
2022/02/17 02:20:49;;;;;;;;;;;;;;;;;;2097938;28;20365;-49
2022/02/17 02:21:50;;;;;;;;;;;;;;;;;;2095593;28;20392;-53
2022/02/17 02:22:51;;;;;;;;;;;;;;;;;;2097683;28;20357;-48
2022/02/17 02:23:52;;;;;;;;;;;;;;;;;;2098071;28;19932;-44
2022/02/17 02:24:54;;;;;;;;;;;;;;;;;;2095924;28;19924;-49
2022/02/17 02:25:55;;;;;;;;;;;;;;;;;;2098226;28;20025;-44
2022/02/17 02:26:56;;;;;;;;;;;;;;;;;;2097279;28;19924;-48
2022/02/17 02:27:57;;;;;;;;;;;;;;;;;;2096272;28;20004;-49
2022/02/17 02:28:58;;;;;;;;;;;;;;;;;;2097819;28;19928;-49
2022/02/17 02:29:59;;;;;;;;;;;;;;;;;;2097109;28;20050;-50
2022/02/17 02:31:00;;;;;;;;;;;;;;;;;;2090627;28;19979;-49
2022/02/17 02:32:01;;;;;;;;;;;;;;;;;;2089831;28;19916;-44
2022/02/17 02:33:02;;;;;;;;;;;;;;;;;;2092132;28;20341;-44
2022/02/17 02:34:03;;;;;;;;;;;;;;;;;;2096543;28;20366;-44
2022/02/17 02:35:03;;;;;;;;;;;;;;;;;;2097760;28;19963;-45
2022/02/17 02:36:07;;;;;;;;;;;;;;;;;;2093214;28;19936;-44
2022/02/17 02:37:28;;;;;;;;;;;;;;;;;;2097739;28;19928;-44
2022/02/17 02:38:29;;;;;;;;;;;;;;;;;;2096382;28;19932;-44
2022/02/17 02:39:30;;;;;;;;;;;;;;;;;;2095717;28;20367;-44
2022/02/17 02:40:30;;;;;;;;;;;;;;;;;;2097841;28;19932;-51
2022/02/17 02:41:31;;;;;;;;;;;;;;;;;;2096702;28;20252;-50
2022/02/17 02:42:32;;;;;;;;;;;;;;;;;;2096560;28;19935;-50
2022/02/17 02:43:33;;;;;;;;;;;;;;;;;;2097747;28;19924;-48
2022/02/17 02:44:34;;;;;;;;;;;;;;;;;;2095510;28;19955;-48
2022/02/17 02:45:35;;;;;;;;;;;;;;;;;;2097949;28;19969;-44
2022/02/17 02:46:36;;;;;;;;;;;;;;;;;;2097503;28;20378;-45
2022/02/17 02:47:37;;;;;;;;;;;;;;;;;;2094227;28;19924;-45
2022/02/17 02:48:38;;;;;;;;;;;;;;;;;;2097806;28;19928;-45
2022/02/17 02:49:38;;;;;;;;;;;;;;;;;;2096983;28;20019;-44
2022/02/17 02:50:40;;;;;;;;;;;;;;;;;;2095327;28;19924;-52
2022/02/17 02:51:41;;;;;;;;;;;;;;;;;;2097708;28;19982;-53
2022/02/17 02:52:42;;;;;;;;;;;;;;;;;;2095934;28;20431;-52
2022/02/17 02:53:42;;;;;;;;;;;;;;;;;;2095987;28;19997;-50
2022/02/17 02:54:43;;;;;;;;;;;;;;;;;;2097852;28;19970;-49
2022/02/17 02:55:44;;;;;;;;;;;;;;;;;;2094059;28;19975;-48
2022/02/17 02:56:46;;;;;;;;;;;;;;;;;;2097716;28;19951;-44
2022/02/17 02:57:46;;;;;;;;;;;;;;;;;;2097760;28;20019;-44
2022/02/17 02:58:47;;;;;;;;;;;;;;;;;;2094048;28;19987;-44
2022/02/17 02:59:48;;;;;;;;;;;;;;;;;;2097994;28;19974;-49
2022/02/17 03:00:49;;;;;;;;;;;;;;;;;;2096757;28;19924;-49
2022/02/17 03:01:50;;;;;;;;;;;;;;;;;;2094673;28;20073;-49
2022/02/17 03:02:51;;;;;;;;;;;;;;;;;;2097557;28;19924;-50
2022/02/17 03:03:52;;;;;;;;;;;;;;;;;;2095971;28;19959;-49
2022/02/17 03:04:52;;;;;;;;;;;;;;;;;;2095239;28;19964;-50
2022/02/17 03:05:53;;;;;;;;;;;;;;;;;;2097611;28;19924;-51
2022/02/17 03:06:54;;;;;;;;;;;;;;;;;;2095612;28;19932;-49
2022/02/17 03:07:55;;;;;;;;;;;;;;;;;;2096587;28;19925;-44
2022/02/17 03:08:56;;;;;;;;;;;;;;;;;;2097533;28;19962;-44
2022/02/17 03:09:57;;;;;;;;;;;;;;;;;;2095812;28;19925;-44
2022/02/17 03:10:58;;;;;;;;;;;;;;;;;;2089448;28;20609;-50
2022/02/17 03:11:59;;;;;;;;;;;;;;;;;;2089435;28;19975;-48
2022/02/17 03:13:00;;;;;;;;;;;;;;;;;;2093006;28;19924;-50
2022/02/17 03:14:01;;;;;;;;;;;;;;;;;;2097418;28;19948;-51
2022/02/17 03:15:02;;;;;;;;;;;;;;;;;;2097289;28;19931;-49
2022/02/17 03:16:03;;;;;;;;;;;;;;;;;;2095908;28;19975;-51
2022/02/17 03:17:04;;;;;;;;;;;;;;;;;;2097434;28;19924;-49
2022/02/17 03:18:05;;;;;;;;;;;;;;;;;;2096908;28;19963;-49
2022/02/17 03:19:07;;;;;;;;;;;;;;;;;;2094960;28;19932;-50
2022/02/17 03:20:08;;;;;;;;;;;;;;;;;;2097562;28;20024;-49
2022/02/17 03:21:09;;;;;;;;;;;;;;;;;;2094881;28;20409;-55
2022/02/17 03:22:10;;;;;;;;;;;;;;;;;;2096982;28;20011;-49
2022/02/17 03:23:14;;;;;;;;;;;;;;;;;;2097527;28;19950;-49
2022/02/17 03:24:15;;;;;;;;;;;;;;;;;;2095357;28;19983;-44
2022/02/17 03:25:15;;;;;;;;;;;;;;;;;;2097488;28;19925;-45
2022/02/17 03:26:16;;;;;;;;;;;;;;;;;;2097663;28;19924;-49
2022/02/17 03:27:17;;;;;;;;;;;;;;;;;;2095262;28;19925;-49
2022/02/17 03:28:18;;;;;;;;;;;;;;;;;;2097460;28;19979;-51
2022/02/17 03:29:19;;;;;;;;;;;;;;;;;;2096697;28;20381;-48
2022/02/17 03:30:20;;;;;;;;;;;;;;;;;;2095228;28;20085;-48
2022/02/17 03:31:21;;;;;;;;;;;;;;;;;;2099163;28;20447;-49
2022/02/17 03:32:22;;;;;;;;;;;;;;;;;;2097830;28;19924;-48
2022/02/17 03:33:23;;;;;;;;;;;;;;;;;;2097548;28;19955;-49
2022/02/17 03:34:24;;;;;;;;;;;;;;;;;;2099022;28;19913;-44
2022/02/17 03:35:25;;;;;;;;;;;;;;;;;;2096839;28;19963;-44
2022/02/17 03:36:26;;;;;;;;;;;;;;;;;;2098998;28;19924;-43
2022/02/17 03:37:31;;;;;;;;;;;;;;;;;;2098978;28;19936;-44
2022/02/17 03:38:32;;;;;;;;;;;;;;;;;;2096673;28;20285;-45
2022/02/17 03:39:33;;;;;;;;;;;;;;;;;;2098778;28;19924;-45
2022/02/17 03:40:34;;;;;;;;;;;;;;;;;;2098069;28;20020;-44
2022/02/17 03:41:35;;;;;;;;;;;;;;;;;;2096793;28;19925;-44
2022/02/17 03:42:37;;;;;;;;;;;;;;;;;;2099134;28;20023;-45
2022/02/17 03:43:38;;;;;;;;;;;;;;;;;;2096589;28;20400;-45
2022/02/17 03:44:42;;;;;;;;;;;;;;;;;;2098843;28;19924;-44
2022/02/17 03:45:43;;;;;;;;;;;;;;;;;;2098692;28;20451;-49
2022/02/17 03:46:44;;;;;;;;;;;;;;;;;;2096790;28;19924;-50
2022/02/17 03:47:44;;;;;;;;;;;;;;;;;;2098872;28;20090;-50
2022/02/17 03:48:45;;;;;;;;;;;;;;;;;;2098037;28;19924;-53
2022/02/17 03:49:46;;;;;;;;;;;;;;;;;;2096110;28;20003;-49
2022/02/17 03:50:47;;;;;;;;;;;;;;;;;;2098744;28;20274;-48
2022/02/17 03:51:48;;;;;;;;;;;;;;;;;;2097924;28;19928;-50
2022/02/17 03:52:49;;;;;;;;;;;;;;;;;;2097063;28;20042;-52
2022/02/17 03:53:50;;;;;;;;;;;;;;;;;;2098864;28;19925;-50
2022/02/17 03:54:51;;;;;;;;;;;;;;;;;;2095436;28;19925;-49
2022/02/17 03:55:51;;;;;;;;;;;;;;;;;;2098601;28;19924;-44
2022/02/17 03:56:52;;;;;;;;;;;;;;;;;;2098909;28;19967;-44
2022/02/17 03:57:53;;;;;;;;;;;;;;;;;;2096665;28;20293;-45
2022/02/17 03:59:04;;;;;;;;;;;;;;;;;;2091105;28;19924;-44
2022/02/17 04:00:04;;;;;;;;;;;;;;;;;;2090087;28;20201;-45
2022/02/17 04:01:05;;;;;;;;;;;;;;;;;;2094900;28;19960;-44
2022/02/17 04:02:07;;;;;;;;;;;;;;;;;;2098764;28;19929;-45
2022/02/17 04:03:08;;;;;;;;;;;;;;;;;;2097982;28;19971;-44
2022/02/17 04:04:09;;;;;;;;;;;;;;;;;;2095993;28;19924;-44
2022/02/17 04:05:10;;;;;;;;;;;;;;;;;;2099302;28;19925;-45
2022/02/17 04:06:11;;;;;;;;;;;;;;;;;;2096504;28;19929;-44
2022/02/17 04:07:14;;;;;;;;;;;;;;;;;;2098393;28;19932;-44
2022/02/17 04:08:15;;;;;;;;;;;;;;;;;;2098818;28;20643;-45
2022/02/17 04:09:16;;;;;;;;;;;;;;;;;;2096531;28;19959;-44
2022/02/17 04:10:17;;;;;;;;;;;;;;;;;;2098939;28;20058;-44
2022/02/17 04:11:18;;;;;;;;;;;;;;;;;;2098669;28;19982;-44
2022/02/17 04:12:18;;;;;;;;;;;;;;;;;;2095112;28;19989;-44
2022/02/17 04:13:19;;;;;;;;;;;;;;;;;;2098618;28;20335;-44
2022/02/17 04:14:20;;;;;;;;;;;;;;;;;;2097018;28;20028;-43
2022/02/17 04:15:21;;;;;;;;;;;;;;;;;;2096850;28;19932;-44
2022/02/17 04:16:22;;;;;;;;;;;;;;;;;;2098659;28;19932;-44
2022/02/17 04:17:23;;;;;;;;;;;;;;;;;;2096440;28;19937;-44
2022/02/17 04:18:23;;;;;;;;;;;;;;;;;;2097774;28;20015;-44
2022/02/17 04:19:26;;;;;;;;;;;;;;;;;;2098605;28;19963;-45
2022/02/17 04:20:27;;;;;;;;;;;;;;;;;;2097585;28;20019;-44
2022/02/17 04:21:28;;;;;;;;;;;;;;;;;;2097604;28;19928;-44
2022/02/17 04:22:28;;;;;;;;;;;;;;;;;;2098875;28;20297;-52
2022/02/17 04:23:30;;;;;;;;;;;;;;;;;;2095110;28;19932;-49
2022/02/17 04:24:30;;;;;;;;;;;;;;;;;;2098827;28;20389;-49
2022/02/17 04:25:31;;;;;;;;;;;;;;;;;;2098753;28;19928;-49
2022/02/17 04:26:32;;;;;;;;;;;;;;;;;;2095396;28;20003;-49
2022/02/17 04:27:33;;;;;;;;;;;;;;;;;;2098570;28;20377;-53
2022/02/17 04:28:34;;;;;;;;;;;;;;;;;;2097572;28;20007;-49
2022/02/17 04:29:35;;;;;;;;;;;;;;;;;;2097453;28;19924;-49
2022/02/17 04:30:36;;;;;;;;;;;;;;;;;;2098420;28;19974;-49
2022/02/17 04:31:39;;;;;;;;;;;;;;;;;;2097567;28;19924;-51
2022/02/17 04:32:40;;;;;;;;;;;;;;;;;;2097199;28;19924;-48
2022/02/17 04:33:41;;;;;;;;;;;;;;;;;;2098581;28;20365;-48
2022/02/17 04:34:42;;;;;;;;;;;;;;;;;;2096286;28;19932;-52
2022/02/17 04:35:43;;;;;;;;;;;;;;;;;;2098241;28;20297;-51
2022/02/17 04:36:44;;;;;;;;;;;;;;;;;;2098706;28;19970;-50
2022/02/17 04:37:45;;;;;;;;;;;;;;;;;;2093871;28;19986;-50
2022/02/17 04:38:47;;;;;;;;;;;;;;;;;;2098540;28;19964;-49
2022/02/17 04:39:47;;;;;;;;;;;;;;;;;;2097286;28;20554;-49
2022/02/17 04:42:20;;;;;;;;;;;;;;;;;;2098493;28;20018;-51
2022/02/17 04:43:21;;;;;;;;;;;;;;;;;;2096355;28;20047;-43
2022/02/17 04:44:22;;;;;;;;;;;;;;;;;;2098587;28;19959;-45
2022/02/17 04:45:23;;;;;;;;;;;;;;;;;;2098046;28;19931;-44
2022/02/17 04:46:24;;;;;;;;;;;;;;;;;;2096519;28;19932;-43
2022/02/17 04:47:24;;;;;;;;;;;;;;;;;;2098431;28;20011;-44
2022/02/17 04:48:25;;;;;;;;;;;;;;;;;;2097485;28;19989;-44
2022/02/17 04:49:26;;;;;;;;;;;;;;;;;;2095960;28;19924;-44
2022/02/17 04:50:27;;;;;;;;;;;;;;;;;;2098365;28;19929;-43
2022/02/17 04:51:28;;;;;;;;;;;;;;;;;;2094899;28;20036;-44
2022/02/17 04:52:29;;;;;;;;;;;;;;;;;;2097622;28;19932;-52
2022/02/17 04:53:30;;;;;;;;;;;;;;;;;;2098518;28;19936;-48
2022/02/17 04:54:31;;;;;;;;;;;;;;;;;;2094903;28;19939;-49
2022/02/17 04:55:32;;;;;;;;;;;;;;;;;;2098066;28;19936;-50
2022/02/17 04:56:33;;;;;;;;;;;;;;;;;;2099020;28;20399;-50
2022/02/17 04:57:33;;;;;;;;;;;;;;;;;;2093695;28;19971;-49
2022/02/17 04:58:35;;;;;;;;;;;;;;;;;;2098675;28;19931;-45
2022/02/17 04:59:36;;;;;;;;;;;;;;;;;;2097710;28;20081;-44
2022/02/17 05:00:36;;;;;;;;;;;;;;;;;;2096415;28;19928;-44
2022/02/17 05:01:38;;;;;;;;;;;;;;;;;;2098283;28;19970;-48
2022/02/17 05:02:38;;;;;;;;;;;;;;;;;;2096958;28;20026;-45
2022/02/17 05:03:39;;;;;;;;;;;;;;;;;;2096703;28;19931;-44
2022/02/17 05:04:40;;;;;;;;;;;;;;;;;;2098210;28;20397;-44
2022/02/17 05:05:41;;;;;;;;;;;;;;;;;;2097423;28;20415;-44
2022/02/17 05:06:42;;;;;;;;;;;;;;;;;;2096996;28;19970;-44
2022/02/17 05:07:43;;;;;;;;;;;;;;;;;;2098598;28;20431;-51
2022/02/17 05:08:46;;;;;;;;;;;;;;;;;;2095902;28;19932;-49
2022/02/17 05:09:47;;;;;;;;;;;;;;;;;;2098425;28;20381;-49
2022/02/17 05:10:47;;;;;;;;;;;;;;;;;;2098454;28;19924;-44
2022/02/17 05:11:48;;;;;;;;;;;;;;;;;;2096199;28;20378;-44
2022/02/17 05:12:49;;;;;;;;;;;;;;;;;;2098240;28;19928;-44
2022/02/17 05:13:50;;;;;;;;;;;;;;;;;;2098195;28;19925;-45
2022/02/17 05:14:51;;;;;;;;;;;;;;;;;;2096479;28;19924;-45
2022/02/17 05:15:52;;;;;;;;;;;;;;;;;;2098104;28;19971;-44
2022/02/17 05:16:53;;;;;;;;;;;;;;;;;;2094770;28;19932;-44
2022/02/17 05:17:54;;;;;;;;;;;;;;;;;;2097010;28;19924;-44
2022/02/17 05:18:54;;;;;;;;;;;;;;;;;;2098306;28;19947;-44
2022/02/17 05:19:55;;;;;;;;;;;;;;;;;;2096069;28;19932;-44
2022/02/17 05:20:56;;;;;;;;;;;;;;;;;;2097859;28;19975;-44
2022/02/17 05:21:57;;;;;;;;;;;;;;;;;;2098416;28;19930;-45
2022/02/17 05:22:58;;;;;;;;;;;;;;;;;;2093428;28;19940;-45
2022/02/17 05:23:59;;;;;;;;;;;;;;;;;;2098109;28;19928;-45
2022/02/17 05:25:00;;;;;;;;;;;;;;;;;;2098409;28;19935;-44
2022/02/17 05:26:01;;;;;;;;;;;;;;;;;;2096347;28;20585;-50
2022/02/17 05:27:02;;;;;;;;;;;;;;;;;;2098135;28;20014;-48
2022/02/17 05:28:08;;;;;;;;;;;;;;;;;;2097431;28;20508;-49
2022/02/17 05:29:09;;;;;;;;;;;;;;;;;;2096556;28;20460;-49
2022/02/17 05:30:10;;;;;;;;;;;;;;;;;;2098224;28;19925;-49
2022/02/17 05:31:11;;;;;;;;;;;;;;;;;;2096090;28;19990;-50
2022/02/17 05:32:12;;;;;;;;;;;;;;;;;;2097809;28;20359;-50
2022/02/17 05:33:13;;;;;;;;;;;;;;;;;;2098454;28;19925;-44
2022/02/17 05:34:13;;;;;;;;;;;;;;;;;;2095954;28;19925;-44
2022/02/17 05:35:14;;;;;;;;;;;;;;;;;;2098368;28;19928;-44
2022/02/17 05:36:15;;;;;;;;;;;;;;;;;;2097915;28;19924;-44
2022/02/17 05:37:16;;;;;;;;;;;;;;;;;;2095834;28;20929;-44
2022/02/17 05:38:17;;;;;;;;;;;;;;;;;;2098315;28;19973;-44
2022/02/17 05:39:18;;;;;;;;;;;;;;;;;;2096944;28;19932;-44
2022/02/17 05:40:19;;;;;;;;;;;;;;;;;;2095847;28;20381;-45
2022/02/17 05:41:20;;;;;;;;;;;;;;;;;;2097939;28;19932;-44
2022/02/17 05:42:20;;;;;;;;;;;;;;;;;;2097559;28;20011;-44
2022/02/17 05:43:21;;;;;;;;;;;;;;;;;;2096876;28;20401;-44
2022/02/17 05:44:22;;;;;;;;;;;;;;;;;;2097865;28;19928;-44
2022/02/17 05:45:23;;;;;;;;;;;;;;;;;;2094570;28;19933;-44
2022/02/17 05:46:24;;;;;;;;;;;;;;;;;;2097825;28;19956;-44
2022/02/17 05:47:25;;;;;;;;;;;;;;;;;;2098154;28;19924;-49
2022/02/17 05:48:26;;;;;;;;;;;;;;;;;;2093731;28;19925;-51
2022/02/17 05:49:27;;;;;;;;;;;;;;;;;;2098247;28;20007;-49
2022/02/17 05:50:28;;;;;;;;;;;;;;;;;;2098102;28;20577;-49
2022/02/17 05:51:29;;;;;;;;;;;;;;;;;;2094446;28;19929;-49
2022/02/17 05:52:30;;;;;;;;;;;;;;;;;;2098063;28;19964;-50
2022/02/17 05:53:31;;;;;;;;;;;;;;;;;;2096797;28;20345;-49
2022/02/17 05:54:32;;;;;;;;;;;;;;;;;;2096090;28;20385;-50
2022/02/17 05:55:33;;;;;;;;;;;;;;;;;;2098098;28;20006;-49
2022/02/17 05:56:34;;;;;;;;;;;;;;;;;;2095575;28;19955;-49
2022/02/17 05:57:35;;;;;;;;;;;;;;;;;;2096225;28;19978;-50
2022/02/17 05:58:36;;;;;;;;;;;;;;;;;;2097969;28;20325;-49
2022/02/17 05:59:38;;;;;;;;;;;;;;;;;;2093614;28;19928;-49
2022/02/17 06:00:40;;;;;;;;;;;;;;;;;;2097994;28;20011;-44
2022/02/17 06:01:41;;;;;;;;;;;;;;;;;;2097700;28;20332;-44
2022/02/17 06:02:45;;;;;;;;;;;;;;;;;;2094279;28;20377;-44
2022/02/17 06:03:46;;;;;;;;;;;;;;;;;;2097951;28;19954;-44
2022/02/17 06:04:47;;;;;;;;;;;;;;;;;;2097415;28;20297;-44
2022/02/17 06:05:48;;;;;;;;;;;;;;;;;;2095898;28;19931;-44
2022/02/17 06:06:48;;;;;;;;;;;;;;;;;;2098248;28;20024;-49
2022/02/17 06:07:50;;;;;;;;;;;;;;;;;;2097130;28;19936;-49
2022/02/17 06:08:54;;;;;;;;;;;;;;;;;;2096429;28;20367;-51
2022/02/17 06:09:55;;;;;;;;;;;;;;;;;;2097857;28;19967;-50
2022/02/17 06:10:56;;;;;;;;;;;;;;;;;;2097129;28;19924;-51
2022/02/17 06:11:57;;;;;;;;;;;;;;;;;;2089500;28;19975;-51
2022/02/17 06:12:58;;;;;;;;;;;;;;;;;;2089749;28;20071;-49
2022/02/17 06:13:59;;;;;;;;;;;;;;;;;;2094256;28;19924;-45
2022/02/17 06:15:00;;;;;;;;;;;;;;;;;;2097852;28;20004;-44
2022/02/17 06:16:00;;;;;;;;;;;;;;;;;;2097705;28;19925;-45
2022/02/17 06:17:02;;;;;;;;;;;;;;;;;;2095466;28;19924;-44
2022/02/17 06:18:03;;;;;;;;;;;;;;;;;;2097765;28;20011;-44
2022/02/17 06:19:04;;;;;;;;;;;;;;;;;;2096967;28;20011;-44
2022/02/17 06:20:04;;;;;;;;;;;;;;;;;;2096810;28;20504;-50
2022/02/17 06:21:05;;;;;;;;;;;;;;;;;;2097553;28;19925;-50
2022/02/17 06:22:06;;;;;;;;;;;;;;;;;;2095510;28;20015;-45
2022/02/17 06:23:07;;;;;;;;;;;;;;;;;;2096119;28;19968;-44
2022/02/17 06:24:08;;;;;;;;;;;;;;;;;;2098050;28;19932;-44
2022/02/17 06:25:09;;;;;;;;;;;;;;;;;;2095873;28;19978;-44
2022/02/17 06:26:09;;;;;;;;;;;;;;;;;;2097671;28;19925;-44
2022/02/17 06:27:11;;;;;;;;;;;;;;;;;;2097840;28;19977;-45
2022/02/17 06:28:13;;;;;;;;;;;;;;;;;;2095927;28;19932;-52
2022/02/17 06:29:14;;;;;;;;;;;;;;;;;;2097732;28;20014;-49
2022/02/17 06:30:15;;;;;;;;;;;;;;;;;;2097142;28;19991;-49
2022/02/17 06:31:18;;;;;;;;;;;;;;;;;;2094783;28;19932;-52
2022/02/17 06:32:19;;;;;;;;;;;;;;;;;;2097884;28;20423;-49
2022/02/17 06:33:20;;;;;;;;;;;;;;;;;;2094838;28;19947;-50
2022/02/17 06:34:21;;;;;;;;;;;;;;;;;;2096045;28;19932;-49
2022/02/17 06:35:21;;;;;;;;;;;;;;;;;;2097970;28;19974;-44
2022/02/17 06:36:23;;;;;;;;;;;;;;;;;;2096858;28;21215;-44
2022/02/17 06:37:23;;;;;;;;;;;;;;;;;;2090037;28;19932;-49
2022/02/17 06:38:26;;;;;;;;;;;;;;;;;;2089576;28;19932;-50
2022/02/17 06:39:27;;;;;;;;;;;;;;;;;;2092240;28;19968;-44
2022/02/17 06:40:28;;;;;;;;;;;;;;;;;;2097807;28;20461;-44
2022/02/17 06:41:29;;;;;;;;;;;;;;;;;;2097928;28;19975;-45
2022/02/17 06:42:30;;;;;;;;;;;;;;;;;;2095530;28;19936;-45
2022/02/17 06:43:35;;;;;;;;;;;;;;;;;;2097849;28;19924;-50
2022/02/17 06:44:36;;;;;;;;;;;;;;;;;;2096877;28;20027;-49
2022/02/17 06:45:37;;;;;;;;;;;;;;;;;;2096217;28;19933;-49
2022/02/17 06:46:38;;;;;;;;;;;;;;;;;;2097713;28;19925;-52
2022/02/17 06:47:39;;;;;;;;;;;;;;;;;;2096823;28;20387;-50
2022/02/17 06:48:40;;;;;;;;;;;;;;;;;;2089392;28;20279;-44
2022/02/17 06:49:41;;;;;;;;;;;;;;;;;;2089363;28;19931;-44
2022/02/17 06:50:42;;;;;;;;;;;;;;;;;;2093165;28;19924;-45
2022/02/17 06:51:42;;;;;;;;;;;;;;;;;;2089343;28;19948;-44
2022/02/17 06:52:43;;;;;;;;;;;;;;;;;;2089346;28;19925;-44
2022/02/17 06:53:44;;;;;;;;;;;;;;;;;;2094288;28;20041;-45
2022/02/17 06:54:45;;;;;;;;;;;;;;;;;;2097553;28;19932;-45
2022/02/17 06:55:46;;;;;;;;;;;;;;;;;;2096966;28;19931;-45
2022/02/17 06:56:47;;;;;;;;;;;;;;;;;;2095787;28;19986;-44
2022/02/17 06:57:48;;;;;;;;;;;;;;;;;;2097656;28;19947;-45
2022/02/17 06:58:49;;;;;;;;;;;;;;;;;;2097053;28;19928;-45